createdAt,value
2023-03-05T00:01:33.478Z,25.60
2023-03-05T00:04:04.743Z,65.70
2023-03-05T00:06:33.688Z,77.40
2023-03-05T00:09:02.442Z,54.30
2023-03-05T00:11:31.902Z,31.50
2023-03-05T00:14:03.577Z,44.60
2023-03-05T00:16:32.634Z,36.60
2023-03-05T00:19:01.652Z,41.20
2023-03-05T00:21:36.238Z,46.80
2023-03-05T00:24:07.465Z,40.20
2023-03-05T00:26:37.698Z,40.00
2023-03-05T00:29:06.984Z,33.80
2023-03-05T00:31:36.546Z,50.90
2023-03-05T00:34:08.021Z,36.40
2023-03-05T00:36:40.679Z,77.30
2023-03-05T00:39:08.713Z,44.80
2023-03-05T00:41:36.726Z,46.20
2023-03-05T00:44:04.949Z,51.80
2023-03-05T00:46:33.342Z,62.60
2023-03-05T00:49:01.402Z,114.00
2023-03-05T00:51:29.477Z,52.70
2023-03-05T00:53:57.328Z,37.90
2023-03-05T00:56:25.961Z,53.80
2023-03-05T00:58:54.027Z,46.40
2023-03-05T01:01:21.979Z,49.80
2023-03-05T01:03:50.497Z,22.30
2023-03-05T01:06:18.935Z,38.00
2023-03-05T01:08:47.019Z,37.30
2023-03-05T01:11:15.154Z,24.10
2023-03-05T01:13:43.049Z,28.50
2023-03-05T01:16:11.147Z,30.50
2023-03-05T01:18:40.700Z,17.90
2023-03-05T01:21:09.744Z,45.50
2023-03-05T01:23:37.977Z,30.50
2023-03-05T01:26:06.486Z,33.30
2023-03-05T01:28:34.778Z,22.30
2023-03-05T01:31:02.815Z,14.30
2023-03-05T01:33:30.794Z,21.10
2023-03-05T01:35:58.656Z,15.50
2023-03-05T01:38:26.705Z,17.90
2023-03-05T01:40:54.611Z,13.50
2023-03-05T01:43:28.398Z,21.90
2023-03-05T01:46:16.878Z,14.00
2023-03-05T01:48:49.953Z,13.50
2023-03-05T01:51:20.445Z,19.00
2023-03-05T01:53:48.772Z,17.40
2023-03-05T01:56:17.104Z,22.20
2023-03-05T01:58:46.059Z,18.10
2023-03-05T02:01:14.133Z,13.30
2023-03-05T02:03:43.091Z,13.40
2023-03-05T02:06:11.042Z,16.10
2023-03-05T02:08:38.996Z,19.30
2023-03-05T02:11:08.705Z,31.00
2023-03-05T02:13:40.833Z,21.60
2023-03-05T02:16:09.062Z,19.00
2023-03-05T02:18:37.034Z,54.40
2023-03-05T02:21:07.790Z,10.20
2023-03-05T02:23:37.874Z,10.20
2023-03-05T02:26:08.753Z,23.10
2023-03-05T02:28:44.459Z,24.60
2023-03-05T02:31:18.274Z,12.40
2023-03-05T02:33:47.267Z,8.80
2023-03-05T02:36:16.098Z,9.20
2023-03-05T02:38:45.141Z,20.30
2023-03-05T02:41:14.513Z,9.10
2023-03-05T02:43:43.542Z,35.50
2023-03-05T02:46:11.867Z,13.70
2023-03-05T02:48:40.633Z,7.50
2023-03-05T02:51:10.068Z,8.00
2023-03-05T02:53:38.099Z,7.40
2023-03-05T02:56:06.342Z,7.70
2023-03-05T02:58:36.138Z,12.10
2023-03-05T03:01:04.513Z,14.70
2023-03-05T03:03:32.725Z,10.70
2023-03-05T03:06:00.903Z,10.10
2023-03-05T03:08:28.827Z,10.20
2023-03-05T03:10:56.752Z,11.10
2023-03-05T03:13:25.446Z,9.00
2023-03-05T03:16:02.995Z,7.60
2023-03-05T03:18:31.191Z,7.70
2023-03-05T03:20:59.648Z,8.10
2023-03-05T03:23:28.065Z,9.40
2023-03-05T03:25:56.058Z,11.20
2023-03-05T03:28:23.974Z,9.60
2023-03-05T03:30:51.894Z,7.70
2023-03-05T03:33:19.944Z,6.50
2023-03-05T03:35:47.977Z,7.20
2023-03-05T03:38:16.000Z,5.90
2023-03-05T03:40:43.903Z,6.80
2023-03-05T03:43:11.851Z,6.40
2023-03-05T03:45:44.161Z,6.20
2023-03-05T03:48:12.206Z,5.70
2023-03-05T03:50:41.819Z,6.70
2023-03-05T03:53:14.275Z,6.60
2023-03-05T03:55:43.078Z,6.50
2023-03-05T03:58:11.042Z,7.20
2023-03-05T04:00:41.100Z,7.50
2023-03-05T04:03:09.624Z,7.70
2023-03-05T04:05:37.613Z,8.50
2023-03-05T04:08:08.505Z,6.50
2023-03-05T04:10:36.414Z,6.10
2023-03-05T04:13:04.299Z,6.90
2023-03-05T04:15:33.370Z,6.60
2023-03-05T04:18:01.686Z,6.70
2023-03-05T04:20:29.569Z,7.30
2023-03-05T04:22:57.606Z,7.80
2023-03-05T04:25:25.553Z,7.30
2023-03-05T04:27:53.564Z,6.80
2023-03-05T04:30:21.545Z,6.40
2023-03-05T04:32:49.464Z,5.80
2023-03-05T04:35:17.582Z,5.80
2023-03-05T04:37:45.915Z,6.60
2023-03-05T04:40:14.102Z,6.10
2023-03-05T04:42:42.473Z,6.70
2023-03-05T04:45:11.167Z,6.20
2023-03-05T04:47:39.184Z,6.10
2023-03-05T04:50:07.970Z,6.60
2023-03-05T04:52:40.626Z,6.30
2023-03-05T04:55:09.279Z,5.80
2023-03-05T04:57:37.632Z,5.90
2023-03-05T05:00:08.530Z,5.70
2023-03-05T05:02:36.438Z,6.30
2023-03-05T05:05:04.622Z,6.30
2023-03-05T05:07:32.901Z,5.90
2023-03-05T05:10:00.889Z,5.50
2023-03-05T05:12:30.804Z,5.20
2023-03-05T05:14:58.851Z,6.50
2023-03-05T05:17:30.206Z,6.50
2023-03-05T05:19:58.141Z,5.80
2023-03-05T05:22:28.418Z,6.60
2023-03-05T05:24:56.782Z,6.30
2023-03-05T05:27:24.768Z,5.90
2023-03-05T05:29:53.135Z,6.80
2023-03-05T05:32:22.702Z,6.30
2023-03-05T05:34:58.560Z,6.00
2023-03-05T05:37:27.741Z,6.30
2023-03-05T05:39:55.744Z,6.30
2023-03-05T05:42:25.126Z,5.90
2023-03-05T05:44:53.909Z,5.60
2023-03-05T05:47:21.922Z,5.50
2023-03-05T05:49:49.853Z,5.10
2023-03-05T05:52:17.876Z,5.00
2023-03-05T05:54:45.886Z,5.00
2023-03-05T05:57:14.549Z,5.00
2023-03-05T05:59:42.746Z,4.90
2023-03-05T06:02:11.392Z,5.30
2023-03-05T06:04:40.456Z,5.10
2023-03-05T06:07:08.805Z,5.70
2023-03-05T06:09:36.911Z,4.00
2023-03-05T06:12:05.337Z,3.30
2023-03-05T06:14:33.315Z,3.00
2023-03-05T06:17:01.283Z,2.90
2023-03-05T06:19:29.258Z,3.30
2023-03-05T06:21:57.766Z,2.80
2023-03-05T06:24:25.773Z,3.20
2023-03-05T06:26:53.558Z,3.10
2023-03-05T06:29:21.345Z,3.50
2023-03-05T06:31:49.264Z,3.10
2023-03-05T06:34:17.231Z,3.20
2023-03-05T06:36:45.172Z,4.00
2023-03-05T06:39:13.180Z,3.70
2023-03-05T06:41:41.559Z,6.50
2023-03-05T06:44:09.804Z,5.30
2023-03-05T06:46:39.412Z,4.50
2023-03-05T06:49:09.630Z,3.60
2023-03-05T06:51:40.576Z,3.20
2023-03-05T06:54:12.045Z,3.20
2023-03-05T06:56:42.807Z,3.00
2023-03-05T06:59:13.587Z,3.50
2023-03-05T07:01:41.755Z,3.30
2023-03-05T07:04:12.295Z,3.70
2023-03-05T07:06:44.747Z,4.30
2023-03-05T07:09:15.504Z,4.20
2023-03-05T07:11:43.833Z,4.50
2023-03-05T07:14:12.223Z,4.70
2023-03-05T07:16:40.128Z,5.50
2023-03-05T07:19:08.151Z,4.60
2023-03-05T07:21:39.667Z,4.10
2023-03-05T07:24:09.110Z,4.20
2023-03-05T07:26:37.234Z,3.40
2023-03-05T07:29:05.451Z,3.40
2023-03-05T07:31:33.666Z,3.50
2023-03-05T07:34:03.175Z,3.50
2023-03-05T07:36:31.529Z,21.40
2023-03-05T07:38:59.379Z,3.70
2023-03-05T07:41:27.380Z,10.70
2023-03-05T07:43:55.995Z,5.20
2023-03-05T07:46:27.482Z,4.40
2023-03-05T07:48:55.830Z,7.30
2023-03-05T07:51:26.850Z,7.40
2023-03-05T07:53:57.675Z,4.00
2023-03-05T07:56:35.890Z,4.70
2023-03-05T07:59:10.827Z,3.90
2023-03-05T08:01:39.207Z,2.60
2023-03-05T08:04:09.089Z,3.40
2023-03-05T08:06:40.715Z,3.90
2023-03-05T08:09:08.850Z,3.80
2023-03-05T08:11:36.811Z,3.40
2023-03-05T08:14:04.827Z,4.10
2023-03-05T08:16:32.812Z,4.10
2023-03-05T08:19:01.036Z,4.10
2023-03-05T08:21:34.618Z,5.00
2023-03-05T08:24:08.262Z,6.70
2023-03-05T08:26:38.621Z,8.40
2023-03-05T08:29:10.312Z,6.50
2023-03-05T08:31:39.361Z,4.60
2023-03-05T08:34:07.544Z,8.60
2023-03-05T08:36:35.578Z,10.30
2023-03-05T08:39:04.197Z,7.10
2023-03-05T08:41:32.446Z,5.90
2023-03-05T08:44:01.044Z,9.60
2023-03-05T08:46:29.065Z,9.10
2023-03-05T08:48:57.037Z,7.90
2023-03-05T08:51:26.115Z,13.50
2023-03-05T08:53:56.018Z,10.70
2023-03-05T08:56:25.507Z,10.60
2023-03-05T08:58:53.480Z,17.10
2023-03-05T09:01:22.681Z,18.30
2023-03-05T09:03:51.131Z,20.30
2023-03-05T09:06:19.809Z,15.20
2023-03-05T09:08:47.813Z,13.30
2023-03-05T09:11:15.960Z,17.10
2023-03-05T09:13:44.014Z,13.70
2023-03-05T09:16:15.073Z,8.50
2023-03-05T09:18:43.174Z,7.00
2023-03-05T09:21:14.526Z,15.10
2023-03-05T09:23:44.007Z,7.30
2023-03-05T09:26:14.004Z,7.50
2023-03-05T09:28:42.492Z,11.60
2023-03-05T09:31:11.260Z,4.10
2023-03-05T09:33:40.202Z,4.20
2023-03-05T09:36:34.794Z,4.30
2023-03-05T09:39:04.315Z,4.80
2023-03-05T09:42:20.079Z,4.70
2023-03-05T09:45:11.022Z,4.70
2023-03-05T09:48:06.571Z,5.50
2023-03-05T09:50:44.319Z,4.30
2023-03-05T09:53:35.236Z,3.30
2023-03-05T09:56:11.295Z,4.20
2023-03-05T09:58:41.180Z,4.30
2023-03-05T10:01:18.779Z,5.50
2023-03-05T10:03:57.071Z,3.80
2023-03-05T10:06:26.694Z,3.20
2023-03-05T10:09:02.494Z,3.50
2023-03-05T10:11:50.773Z,3.60
2023-03-05T10:14:34.155Z,3.20
2023-03-05T10:17:44.691Z,3.60
2023-03-05T10:20:27.228Z,2.30
2023-03-05T10:23:01.238Z,2.40
2023-03-05T10:25:47.700Z,2.80
2023-03-05T10:28:20.236Z,3.20
2023-03-05T10:30:54.888Z,5.30
2023-03-05T10:33:47.726Z,2.80
2023-03-05T10:36:26.196Z,5.30
2023-03-05T10:39:15.926Z,5.40
2023-03-05T10:42:07.782Z,8.60
2023-03-05T10:44:48.086Z,6.00
2023-03-05T10:47:37.670Z,5.10
2023-03-05T10:50:17.731Z,3.00
2023-03-05T10:52:51.892Z,3.80
2023-03-05T10:55:22.375Z,7.00
2023-03-05T10:57:50.680Z,6.00
2023-03-05T11:00:24.679Z,2.60
2023-03-05T11:02:58.605Z,3.40
2023-03-05T11:05:39.268Z,3.00
2023-03-05T11:08:32.712Z,3.70
2023-03-05T11:11:14.144Z,5.10
2023-03-05T11:13:48.158Z,5.20
2023-03-05T11:16:21.167Z,2.90
2023-03-05T11:18:49.424Z,7.80
2023-03-05T11:21:27.753Z,2.60
2023-03-05T11:24:16.507Z,3.00
2023-03-05T11:26:49.324Z,2.70
2023-03-05T11:29:30.632Z,3.70
2023-03-05T11:32:23.206Z,4.60
2023-03-05T11:34:52.133Z,4.20
2023-03-05T11:37:23.647Z,3.10
2023-03-05T11:40:21.188Z,5.00
2023-03-05T11:42:58.413Z,4.10
2023-03-05T11:45:28.350Z,3.80
2023-03-05T11:48:18.832Z,4.30
2023-03-05T11:50:53.097Z,4.90
2023-03-05T11:53:25.761Z,4.80
2023-03-05T11:56:25.178Z,5.30
2023-03-05T11:59:05.457Z,9.50
2023-03-05T12:01:41.979Z,6.60
2023-03-05T12:04:09.952Z,6.80
2023-03-05T12:06:43.224Z,4.10
2023-03-05T12:09:23.625Z,8.80
2023-03-05T12:11:59.254Z,6.90
2023-03-05T12:14:43.005Z,4.10
2023-03-05T12:17:22.184Z,3.60
2023-03-05T12:20:12.460Z,6.00
2023-03-05T12:22:42.099Z,8.70
2023-03-05T12:25:32.479Z,3.80
2023-03-05T12:28:01.716Z,4.70
2023-03-05T12:30:35.781Z,5.90
2023-03-05T12:33:08.123Z,4.80
2023-03-05T12:35:39.614Z,4.80
2023-03-05T12:38:32.705Z,12.10
2023-03-05T12:41:22.586Z,8.50
2023-03-05T12:44:05.672Z,5.60
2023-03-05T12:46:36.413Z,7.10
2023-03-05T12:49:28.446Z,10.40
2023-03-05T12:52:01.042Z,28.80
2023-03-05T12:54:35.182Z,9.00
2023-03-05T12:57:26.519Z,13.80
2023-03-05T13:00:11.191Z,94.70
2023-03-05T13:02:45.570Z,90.80
2023-03-05T13:05:33.568Z,20.30
2023-03-05T13:08:23.997Z,9.60
2023-03-05T13:11:00.172Z,7.20
2023-03-05T13:13:31.303Z,5.90
2023-03-05T13:15:59.414Z,6.00
2023-03-05T13:18:30.201Z,1.80
2023-03-05T13:21:06.243Z,3.70
2023-03-05T13:23:35.585Z,4.60
2023-03-05T13:26:18.980Z,5.10
2023-03-05T13:29:30.821Z,2.90
2023-03-05T13:32:01.673Z,2.60
2023-03-05T13:34:47.341Z,4.10
2023-03-05T13:37:25.466Z,6.00
2023-03-05T13:40:15.739Z,14.70
2023-03-05T13:42:43.757Z,58.20
2023-03-05T13:45:31.729Z,67.00
2023-03-05T13:48:02.911Z,240.70
2023-03-05T13:50:37.135Z,33.50
2023-03-05T13:53:34.893Z,115.90
2023-03-05T13:56:05.593Z,14.50
2023-03-05T13:58:54.264Z,75.30
2023-03-05T14:01:36.759Z,40.70
2023-03-05T14:04:29.336Z,66.50
2023-03-05T14:07:05.012Z,39.60
2023-03-05T14:09:38.667Z,24.40
2023-03-05T14:12:37.835Z,23.80
2023-03-05T14:15:21.372Z,44.40
2023-03-05T14:17:49.883Z,47.20
2023-03-05T14:20:24.593Z,36.30
2023-03-05T14:22:56.981Z,61.50
2023-03-05T14:25:38.175Z,129.60
2023-03-05T14:28:28.054Z,61.50
2023-03-05T14:30:57.374Z,79.40
2023-03-05T14:33:30.312Z,45.50
2023-03-05T14:36:00.774Z,52.00
2023-03-05T14:38:33.657Z,7.90
2023-03-05T14:41:20.400Z,12.50
2023-03-05T14:43:48.516Z,198.90
2023-03-05T14:46:16.577Z,163.50
2023-03-05T14:48:44.715Z,76.30
2023-03-05T14:51:12.934Z,405.70
2023-03-05T14:53:47.353Z,474.20
2023-03-05T14:56:27.903Z,356.90
2023-03-05T14:58:59.797Z,492.10
2023-03-05T15:01:27.907Z,509.60
2023-03-05T15:03:55.877Z,384.40
2023-03-05T15:06:33.250Z,254.90
2023-03-05T15:09:02.210Z,614.90
2023-03-05T15:11:30.167Z,257.30
2023-03-05T15:13:58.072Z,214.10
2023-03-05T15:16:26.108Z,294.10
2023-03-05T15:18:53.920Z,201.90
2023-03-05T15:21:21.877Z,194.90
2023-03-05T15:23:49.889Z,236.00
2023-03-05T15:26:17.878Z,214.60
2023-03-05T15:28:46.046Z,75.30
2023-03-05T15:31:16.696Z,116.90
2023-03-05T15:33:44.958Z,233.80
2023-03-05T15:36:13.780Z,213.70
2023-03-05T15:38:42.004Z,257.00
2023-03-05T15:41:09.887Z,183.80
2023-03-05T15:43:38.168Z,206.80
2023-03-05T15:46:07.151Z,367.70
2023-03-05T15:48:35.088Z,188.90
2023-03-05T15:51:06.688Z,313.90
2023-03-05T15:53:34.655Z,160.40
2023-03-05T15:56:02.605Z,187.10
2023-03-05T15:58:30.363Z,68.30
2023-03-05T16:00:58.259Z,225.90
2023-03-05T16:03:26.296Z,268.80
2023-03-05T16:05:54.125Z,192.30
2023-03-05T16:08:22.049Z,267.80
2023-03-05T16:10:50.063Z,136.00
2023-03-05T16:13:21.260Z,201.40
2023-03-05T16:15:53.232Z,100.20
2023-03-05T16:18:22.306Z,115.50
2023-03-05T16:20:51.288Z,242.90
2023-03-05T16:23:19.300Z,517.40
2023-03-05T16:25:47.349Z,298.10
2023-03-05T16:28:15.519Z,274.10
2023-03-05T16:30:43.606Z,279.30
2023-03-05T16:33:11.683Z,155.10
2023-03-05T16:35:39.568Z,68.70
2023-03-05T16:38:08.483Z,287.90
2023-03-05T16:41:02.923Z,146.00
2023-03-05T16:43:26.195Z,292.20
2023-03-05T16:45:54.168Z,133.20
2023-03-05T16:48:22.667Z,51.70
2023-03-05T16:50:50.502Z,50.20
2023-03-05T16:53:18.779Z,63.60
2023-03-05T16:55:46.954Z,76.80
2023-03-05T16:58:15.194Z,65.70
2023-03-05T17:00:43.475Z,39.80
2023-03-05T17:03:11.705Z,58.40
2023-03-05T17:05:39.738Z,38.80
2023-03-05T17:08:07.741Z,26.60
2023-03-05T17:10:35.788Z,24.20
2023-03-05T17:13:04.660Z,21.00
2023-03-05T17:15:33.530Z,18.40
2023-03-05T17:18:02.090Z,20.80
2023-03-05T17:20:30.469Z,58.80
2023-03-05T17:23:02.986Z,63.40
2023-03-05T17:25:30.959Z,42.80
2023-03-05T17:27:58.966Z,21.70
2023-03-05T17:30:26.978Z,14.60
2023-03-05T17:32:55.197Z,9.60
2023-03-05T17:35:23.448Z,19.80
2023-03-05T17:37:53.517Z,14.80
2023-03-05T17:40:22.028Z,7.00
2023-03-05T17:42:50.115Z,40.70
2023-03-05T17:45:18.233Z,53.80
2023-03-05T17:47:46.080Z,185.70
2023-03-05T17:50:15.109Z,79.50
2023-03-05T17:52:43.109Z,52.80
2023-03-05T17:55:12.993Z,80.70
2023-03-05T17:57:42.988Z,115.20
2023-03-05T18:00:25.563Z,136.50
2023-03-05T18:02:54.893Z,60.30
2023-03-05T18:05:24.386Z,61.20
2023-03-05T18:07:53.538Z,53.60
2023-03-05T18:10:24.066Z,27.70
2023-03-05T18:12:52.595Z,38.40
2023-03-05T18:15:22.877Z,33.20
2023-03-05T18:17:52.015Z,110.40
2023-03-05T18:20:32.149Z,182.60
2023-03-05T18:23:01.899Z,80.20
2023-03-05T18:25:31.272Z,279.10
2023-03-05T18:28:01.960Z,140.00
2023-03-05T18:30:31.029Z,109.40
2023-03-05T18:33:00.184Z,82.10
2023-03-05T18:35:29.424Z,164.90
2023-03-05T18:37:58.109Z,56.10
2023-03-05T18:40:29.346Z,340.50
2023-03-05T18:43:00.820Z,170.10
2023-03-05T18:45:30.052Z,100.60
2023-03-05T18:47:59.002Z,101.50
2023-03-05T18:50:29.609Z,100.10
2023-03-05T18:52:57.494Z,122.10
2023-03-05T18:55:28.438Z,49.60
2023-03-05T18:57:56.887Z,32.40
2023-03-05T19:00:29.130Z,37.10
2023-03-05T19:02:57.951Z,142.10
2023-03-05T19:05:26.895Z,53.30
2023-03-05T19:07:55.336Z,33.80
2023-03-05T19:10:24.065Z,70.70
2023-03-05T19:12:59.990Z,21.70
2023-03-05T19:15:28.221Z,21.90
2023-03-05T19:17:56.670Z,19.90
2023-03-05T19:20:24.741Z,17.40
2023-03-05T19:22:52.840Z,20.80
2023-03-05T19:25:21.176Z,22.00
2023-03-05T19:27:49.219Z,31.80
2023-03-05T19:30:17.581Z,42.50
2023-03-05T19:32:47.281Z,51.00
2023-03-05T19:35:16.639Z,52.90
2023-03-05T19:37:46.019Z,65.30
2023-03-05T19:40:14.901Z,81.30
2023-03-05T19:42:43.032Z,90.60
2023-03-05T19:45:11.405Z,85.70
2023-03-05T19:47:39.478Z,66.10
2023-03-05T19:50:08.179Z,54.80
2023-03-05T19:52:36.182Z,41.70
2023-03-05T19:55:04.394Z,32.20
2023-03-05T19:57:32.766Z,33.10
2023-03-05T20:00:02.899Z,27.50
2023-03-05T20:02:33.256Z,29.90
2023-03-05T20:05:01.362Z,30.80
2023-03-05T20:07:29.370Z,30.20
2023-03-05T20:09:57.326Z,27.60
2023-03-05T20:12:25.703Z,24.70
2023-03-05T20:14:53.621Z,26.80
2023-03-05T20:17:21.583Z,33.80
2023-03-05T20:19:51.008Z,26.00
2023-03-05T20:22:19.293Z,36.50
2023-03-05T20:24:47.448Z,28.60
2023-03-05T20:27:15.440Z,31.00
2023-03-05T20:29:43.358Z,27.60
2023-03-05T20:32:11.254Z,28.70
2023-03-05T20:34:39.177Z,23.80
2023-03-05T20:37:07.662Z,18.40
2023-03-05T20:39:35.694Z,17.70
2023-03-05T20:42:03.915Z,18.40
2023-03-05T20:44:31.932Z,18.90
2023-03-05T20:47:12.804Z,20.60
2023-03-05T20:49:40.587Z,19.40
2023-03-05T20:52:08.586Z,17.80
2023-03-05T20:54:36.902Z,21.80
2023-03-05T20:57:04.984Z,18.10
2023-03-05T20:59:32.904Z,19.20
2023-03-05T21:02:00.855Z,18.10
2023-03-05T21:04:28.728Z,21.10
2023-03-05T21:06:56.629Z,19.10
2023-03-05T21:09:24.725Z,32.90
2023-03-05T21:11:52.674Z,26.00
2023-03-05T21:14:20.558Z,21.20
2023-03-05T21:16:48.612Z,20.20
2023-03-05T21:19:16.558Z,18.40
2023-03-05T21:21:45.774Z,24.60
2023-03-05T21:24:14.065Z,24.00
2023-03-05T21:26:42.021Z,24.20
2023-03-05T21:29:10.117Z,28.80
2023-03-05T21:31:38.127Z,25.00
2023-03-05T21:34:06.083Z,30.80
2023-03-05T21:36:33.951Z,21.60
2023-03-05T21:39:01.966Z,21.60
2023-03-05T21:41:29.863Z,21.40
2023-03-05T21:43:59.316Z,24.40
2023-03-05T21:46:27.177Z,34.60
2023-03-05T21:48:54.988Z,30.60
2023-03-05T21:51:28.349Z,23.60
2023-03-05T21:53:56.356Z,21.10
2023-03-05T21:56:26.038Z,19.40
2023-03-05T21:58:54.238Z,14.80
2023-03-05T22:01:22.290Z,16.30
2023-03-05T22:03:50.694Z,16.00
2023-03-05T22:06:20.157Z,14.50
2023-03-05T22:08:48.972Z,28.20
2023-03-05T22:11:19.200Z,31.50
2023-03-05T22:13:47.178Z,27.20
2023-03-05T22:16:27.128Z,26.50
2023-03-05T22:18:54.996Z,28.90
2023-03-05T22:21:26.505Z,35.40
2023-03-05T22:23:57.374Z,33.40
2023-03-05T22:26:34.417Z,33.50
2023-03-05T22:29:03.726Z,33.60
2023-03-05T22:31:32.404Z,35.20
2023-03-05T22:34:00.543Z,34.90
2023-03-05T22:36:28.453Z,33.80
2023-03-05T22:38:56.445Z,31.90
2023-03-05T22:41:24.299Z,30.80
2023-03-05T22:43:52.851Z,29.50
2023-03-05T22:46:23.562Z,26.50
2023-03-05T22:48:52.924Z,39.50
2023-03-05T22:51:20.876Z,44.40
2023-03-05T22:53:48.786Z,37.00
2023-03-05T22:56:19.129Z,34.10
2023-03-05T22:58:47.876Z,31.50
2023-03-05T23:01:21.914Z,31.90
2023-03-05T23:03:54.992Z,29.80
2023-03-05T23:06:23.706Z,28.90
2023-03-05T23:08:51.543Z,28.60
2023-03-05T23:11:19.525Z,28.80
2023-03-05T23:13:47.353Z,27.80
2023-03-05T23:16:15.307Z,26.60
2023-03-05T23:18:43.248Z,27.10
2023-03-05T23:21:11.057Z,30.00
2023-03-05T23:23:39.185Z,30.00
2023-03-05T23:26:07.250Z,32.00
2023-03-05T23:28:35.150Z,34.10
2023-03-05T23:31:03.939Z,33.40
2023-03-05T23:33:31.751Z,35.50
2023-03-05T23:36:00.778Z,35.80
2023-03-05T23:38:30.625Z,37.30
2023-03-05T23:41:01.472Z,35.30
2023-03-05T23:43:30.355Z,33.00
2023-03-05T23:46:00.554Z,33.40
2023-03-05T23:48:29.778Z,32.60
2023-03-05T23:50:57.763Z,37.20
2023-03-05T23:53:28.468Z,36.80
2023-03-05T23:55:57.432Z,38.40
2023-03-05T23:58:25.914Z,37.50
